Time;durP1;ratioP1;P1;durP2;ratioP2;P2;SDS_P1;SDS_P2;PMS_P1;PMS_P2;Temp;Humidity;BMP_temperature;BMP_pressure;BME280_temperature;BME280_humidity;BME280_pressure;Samples;Min_cycle;Max_cycle;Signal;HPM_P1;HPM_P2
2023/03/17 00:00:48;;;;;;;13.00;1.85;;;;;;;12.53;nan;99362.28;4997319;28;20391;-72
2023/03/17 00:03:28;;;;;;;13.57;1.93;;;;;;;12.46;nan;99374.78;4992873;28;20391;-72
2023/03/17 00:05:57;;;;;;;16.42;2.25;;;;;;;12.47;nan;99375.66;4990196;28;20026;-72
2023/03/17 00:08:26;;;;;;;16.80;2.55;;;;;;;12.45;nan;99364.25;4995600;28;20076;-73
2023/03/17 00:10:52;;;;;;;17.00;2.63;;;;;;;12.45;nan;99358.97;4996382;28;20028;-73
2023/03/17 00:13:18;;;;;;;13.50;2.00;;;;;;;12.42;nan;99364.31;4997237;28;20022;-72
2023/03/17 00:15:45;;;;;;;15.07;1.70;;;;;;;12.46;nan;99352.78;5008705;28;20025;-73
2023/03/17 00:18:16;;;;;;;16.50;1.98;;;;;;;12.44;nan;99329.06;4996959;28;20548;-73
2023/03/17 00:20:42;;;;;;;13.88;1.52;;;;;;;12.34;nan;99349.56;4997828;28;20038;-72
2023/03/17 00:23:14;;;;;;;12.77;1.83;;;;;;;12.34;nan;99349.56;4977796;28;20086;-72
2023/03/17 00:25:42;;;;;;;11.20;1.50;;;;;;;12.32;nan;99367.22;4977760;28;20038;-72
2023/03/17 00:28:27;;;;;;;14.90;1.70;;;;;;;12.33;nan;99368.94;4983085;28;20455;-72
2023/03/17 00:30:56;;;;;;;9.38;1.23;;;;;;;12.39;nan;99388.16;4996635;28;20034;-72
2023/03/17 00:33:25;;;;;;;12.65;2.17;;;;;;;12.41;nan;99370.50;4997163;28;20121;-72
2023/03/17 00:35:51;;;;;;;16.33;2.97;;;;;;;12.33;nan;99370.72;4995662;28;20022;-72
2023/03/17 00:38:19;;;;;;;14.02;2.00;;;;;;;12.36;nan;99352.16;4995461;28;20491;-73
2023/03/17 00:40:45;;;;;;;11.63;1.40;;;;;;;12.39;nan;99351.19;4998990;28;20029;-72
2023/03/17 00:43:11;;;;;;;15.35;1.88;;;;;;;12.38;nan;99365.31;4995684;28;20117;-74
2023/03/17 00:45:38;;;;;;;9.50;1.90;;;;;;;12.39;nan;99374.97;4996488;28;20061;-73
2023/03/17 00:48:12;;;;;;;12.75;2.10;;;;;;;12.31;nan;99362.84;4997106;28;20026;-72
2023/03/17 00:50:38;;;;;;;13.67;1.80;;;;;;;12.38;nan;99386.44;5002442;28;20022;-73
2023/03/17 00:53:09;;;;;;;12.73;1.48;;;;;;;12.30;nan;99362.91;4995279;28;20025;-72
2023/03/17 00:55:35;;;;;;;11.48;1.80;;;;;;;12.41;nan;99373.16;4996856;28;20053;-72
2023/03/17 00:58:00;;;;;;;12.33;1.30;;;;;;;12.32;nan;99355.81;5005974;28;20026;-73
2023/03/17 01:00:28;;;;;;;17.67;2.00;;;;;;;12.38;nan;99360.03;4996715;28;20018;-73
2023/03/17 01:02:55;;;;;;;14.33;2.00;;;;;;;12.41;nan;99357.31;4993354;28;20050;-73
2023/03/17 01:05:23;;;;;;;10.60;1.92;;;;;;;12.40;nan;99369.66;5000791;28;20434;-73
2023/03/17 01:07:52;;;;;;;15.40;2.25;;;;;;;12.33;nan;99368.94;4993316;28;20518;-73
2023/03/17 01:10:19;;;;;;;16.38;1.85;;;;;;;12.29;nan;99388.41;4985477;28;20110;-73
2023/03/17 01:12:45;;;;;;;11.75;1.25;;;;;;;12.37;nan;99364.47;4995230;28;20062;-72
2023/03/17 01:15:12;;;;;;;13.87;1.50;;;;;;;12.32;nan;99350.53;5003838;28;20030;-73
2023/03/17 01:17:39;;;;;;;9.57;1.38;;;;;;;12.34;nan;99362.75;4997587;28;20026;-73
2023/03/17 01:20:06;;;;;;;12.07;1.38;;;;;;;12.34;nan;99346.06;4989500;28;20034;-72
2023/03/17 01:22:32;;;;;;;13.95;1.88;;;;;;;12.39;nan;99345.91;4997941;28;20029;-73
2023/03/17 01:24:57;;;;;;;13.17;1.57;;;;;;;12.40;nan;99345.00;5000155;28;20022;-73
2023/03/17 01:27:24;;;;;;;14.30;1.80;;;;;;;12.40;nan;99348.53;4999982;28;20073;-73
2023/03/17 01:29:53;;;;;;;17.75;2.58;;;;;;;12.36;nan;99346.88;4997817;28;20064;-73
2023/03/17 01:32:18;;;;;;;11.50;1.38;;;;;;;12.39;nan;99343.28;4995951;28;20084;-72
2023/03/17 01:34:44;;;;;;;12.30;1.47;;;;;;;12.32;nan;99330.25;5000146;28;20026;-73
2023/03/17 01:37:10;;;;;;;13.27;1.40;;;;;;;12.43;nan;99326.47;4999345;28;20428;-73
2023/03/17 01:39:35;;;;;;;16.57;1.77;;;;;;;12.48;nan;99335.13;4999782;28;20041;-73
2023/03/17 01:42:00;;;;;;;9.87;1.33;;;;;;;12.46;nan;99336.94;5001711;28;20030;-74
2023/03/17 01:44:26;;;;;;;12.27;1.40;;;;;;;12.50;nan;99335.97;4999846;28;20106;-73
2023/03/17 01:46:52;;;;;;;16.13;2.27;;;;;;;12.45;nan;99335.22;4999607;28;20072;-73
2023/03/17 01:49:29;;;;;;;13.10;1.77;;;;;;;12.47;nan;99360.66;5002064;28;20037;-73
2023/03/17 01:52:15;;;;;;;12.15;1.42;;;;;;;12.44;nan;99328.22;4999488;28;20517;-73
2023/03/17 01:54:49;;;;;;;15.57;1.40;;;;;;;12.50;nan;99335.97;4984956;28;20034;-72
2023/03/17 01:57:21;;;;;;;9.38;1.40;;;;;;;12.51;nan;99324.50;4988938;28;20029;-73
2023/03/17 01:59:54;;;;;;;17.13;2.15;;;;;;;12.47;nan;99338.69;5002722;28;20045;-73
2023/03/17 02:02:25;;;;;;;14.65;2.17;;;;;;;12.52;nan;99330.63;4999146;28;20046;-72
2023/03/17 02:04:51;;;;;;;15.95;1.63;;;;;;;12.51;nan;99327.13;4999968;28;20030;-73
2023/03/17 02:07:19;;;;;;;16.67;1.60;;;;;;;12.52;nan;99331.50;4999486;28;20022;-72
2023/03/17 02:09:45;;;;;;;11.52;1.48;;;;;;;12.59;nan;99311.06;4999265;28;20034;-72
2023/03/17 02:12:12;;;;;;;14.75;1.52;;;;;;;12.54;nan;99329.69;4997751;28;20132;-73
2023/03/17 02:14:38;;;;;;;13.40;1.92;;;;;;;12.51;nan;99318.31;4997865;28;20107;-73
2023/03/17 02:17:03;;;;;;;9.10;1.03;;;;;;;12.53;nan;99340.28;4990081;28;20030;-73
2023/03/17 02:19:29;;;;;;;12.67;1.30;;;;;;;12.56;nan;99327.84;4986398;28;20014;-72
2023/03/17 02:21:57;;;;;;;17.30;1.58;;;;;;;12.59;nan;99324.28;4997506;28;20025;-73
2023/03/17 02:24:36;;;;;;;12.98;1.40;;;;;;;12.58;nan;99326.03;4998866;28;20469;-72
2023/03/17 02:27:07;;;;;;;13.82;1.17;;;;;;;12.63;nan;99318.84;4998960;28;20045;-73
2023/03/17 02:29:34;;;;;;;9.07;1.58;;;;;;;12.56;nan;99306.72;4997802;28;20030;-72
2023/03/17 02:32:00;;;;;;;10.13;1.27;;;;;;;12.52;nan;99346.47;4993425;28;20019;-75
2023/03/17 02:34:26;;;;;;;14.15;1.98;;;;;;;12.63;nan;99321.50;4996880;28;20531;-72
2023/03/17 02:36:51;;;;;;;13.87;1.53;;;;;;;12.58;nan;99326.03;4998573;28;20506;-73
2023/03/17 02:39:17;;;;;;;13.57;1.50;;;;;;;12.57;nan;99311.09;4998744;28;20029;-72
2023/03/17 02:41:42;;;;;;;14.67;1.47;;;;;;;12.57;nan;99297.91;5000631;28;20049;-73
2023/03/17 02:44:08;;;;;;;9.93;1.65;;;;;;;12.62;nan;99301.28;4998896;28;20060;-72
2023/03/17 02:46:34;;;;;;;13.47;1.77;;;;;;;12.56;nan;99322.56;4998315;28;20398;-73
2023/03/17 02:49:00;;;;;;;16.77;2.25;;;;;;;12.50;nan;99306.91;4997357;28;20511;-75
2023/03/17 02:51:26;;;;;;;14.85;1.40;;;;;;;12.51;nan;99308.66;4978914;28;20026;-73
2023/03/17 02:53:52;;;;;;;17.87;2.00;;;;;;;12.57;nan;99311.09;4979176;28;20029;-73
2023/03/17 02:56:17;;;;;;;16.33;1.75;;;;;;;12.63;nan;99307.44;4978574;28;20038;-73
2023/03/17 02:58:42;;;;;;;13.80;1.80;;;;;;;12.63;nan;99307.44;5004815;28;20030;-72
2023/03/17 03:01:08;;;;;;;13.07;1.67;;;;;;;12.59;nan;99300.50;4998236;28;20105;-73
2023/03/17 03:03:33;;;;;;;16.97;1.60;;;;;;;12.58;nan;99283.78;4999071;28;20105;-73
2023/03/17 03:05:59;;;;;;;14.23;2.22;;;;;;;12.56;nan;99275.03;5003101;28;20030;-73
2023/03/17 03:08:25;;;;;;;12.00;1.50;;;;;;;12.57;nan;99294.41;4998235;28;20029;-73
2023/03/17 03:10:51;;;;;;;12.35;1.40;;;;;;;12.56;nan;99297.97;4985026;28;20038;-73
2023/03/17 03:13:16;;;;;;;14.10;1.30;;;;;;;12.62;nan;99276.66;4991327;28;20027;-72
2023/03/17 03:15:42;;;;;;;14.73;1.67;;;;;;;12.55;nan;99273.31;5001300;28;20030;-72
2023/03/17 03:18:08;;;;;;;10.27;1.63;;;;;;;12.55;nan;99272.47;4985213;28;20113;-73
2023/03/17 03:20:34;;;;;;;11.55;1.50;;;;;;;12.60;nan;99296.97;4998478;28;20073;-72
2023/03/17 03:22:59;;;;;;;13.75;1.60;;;;;;;12.57;nan;99276.78;4997900;28;20022;-74
2023/03/17 03:25:25;;;;;;;15.10;1.83;;;;;;;12.66;nan;99282.69;4998036;28;20026;-73
2023/03/17 03:27:51;;;;;;;12.35;1.50;;;;;;;12.68;nan;99272.97;4997908;28;20036;-73
2023/03/17 03:30:17;;;;;;;14.90;1.53;;;;;;;12.64;nan;99282.75;4997566;28;20081;-72
2023/03/17 03:32:42;;;;;;;13.23;1.75;;;;;;;12.66;nan;99275.66;4997932;28;20026;-72
2023/03/17 03:35:08;;;;;;;10.57;1.60;;;;;;;12.60;nan;99279.31;4997934;28;20030;-72
2023/03/17 03:37:33;;;;;;;14.10;1.50;;;;;;;12.58;nan;99293.50;4997631;28;20023;-72
2023/03/17 03:39:59;;;;;;;12.30;1.73;;;;;;;12.63;nan;99276.59;4997657;28;20027;-72
2023/03/17 03:42:24;;;;;;;13.60;1.50;;;;;;;12.62;nan;99269.56;4999614;28;20033;-72
2023/03/17 03:44:50;;;;;;;14.87;1.53;;;;;;;12.66;nan;99272.13;4997739;28;20022;-72
2023/03/17 03:47:15;;;;;;;16.13;1.83;;;;;;;12.67;nan;99277.38;4997499;28;20049;-72
2023/03/17 03:49:41;;;;;;;12.43;1.53;;;;;;;12.64;nan;99298.59;5003065;28;20026;-73
2023/03/17 03:52:06;;;;;;;15.87;1.73;;;;;;;12.74;nan;99304.50;4997504;28;20029;-72
2023/03/17 03:54:32;;;;;;;14.73;1.85;;;;;;;12.72;nan;99303.66;4997439;28;20037;-72
2023/03/17 03:56:57;;;;;;;12.93;1.07;;;;;;;12.67;nan;99308.22;4999308;28;20022;-72
2023/03/17 03:59:22;;;;;;;11.20;1.60;;;;;;;12.75;nan;99301.78;5004812;28;20030;-73
2023/03/17 04:01:48;;;;;;;15.60;1.67;;;;;;;12.71;nan;99317.78;4997381;28;20132;-73
2023/03/17 04:04:13;;;;;;;11.80;1.50;;;;;;;12.76;nan;99321.16;4997894;28;20026;-72
2023/03/17 04:06:39;;;;;;;10.68;1.40;;;;;;;12.71;nan;99316.00;4993237;28;20077;-73
2023/03/17 04:09:04;;;;;;;18.53;1.63;;;;;;;12.72;nan;99322.16;4977968;28;20031;-73
2023/03/17 04:11:29;;;;;;;8.80;1.43;;;;;;;12.72;nan;99319.53;4978155;28;20482;-73
2023/03/17 04:13:55;;;;;;;11.47;1.33;;;;;;;12.84;nan;99315.66;4977852;28;20030;-73
2023/03/17 04:16:20;;;;;;;14.77;1.37;;;;;;;12.80;nan;99314.03;5006174;28;20514;-73
2023/03/17 04:18:46;;;;;;;12.53;2.37;;;;;;;12.72;nan;99327.44;4997729;28;20269;-72
2023/03/17 04:21:12;;;;;;;10.63;1.40;;;;;;;12.81;nan;99321.03;4998982;28;20109;-73
2023/03/17 04:23:38;;;;;;;14.00;1.95;;;;;;;12.84;nan;99299.81;4997309;28;20026;-72
2023/03/17 04:26:04;;;;;;;10.60;1.30;;;;;;;12.76;nan;99334.38;4996065;28;20026;-73
2023/03/17 04:28:30;;;;;;;12.38;1.27;;;;;;;12.75;nan;99322.91;4997162;28;20061;-72
2023/03/17 04:30:55;;;;;;;13.90;1.67;;;;;;;12.81;nan;99321.88;4991165;28;20026;-73
2023/03/17 04:33:21;;;;;;;12.93;1.53;;;;;;;12.77;nan;99307.03;4997223;28;20030;-73
2023/03/17 04:35:46;;;;;;;18.30;1.70;;;;;;;12.78;nan;99316.69;4995813;28;20514;-72
2023/03/17 04:38:12;;;;;;;16.50;1.60;;;;;;;12.72;nan;99323.00;4996904;28;20026;-73
2023/03/17 04:40:38;;;;;;;12.77;1.67;;;;;;;12.75;nan;99316.78;4998856;28;20030;-73
2023/03/17 04:43:03;;;;;;;12.50;1.60;;;;;;;12.80;nan;99322.81;4997289;28;20037;-72
2023/03/17 04:45:28;;;;;;;11.87;1.27;;;;;;;12.76;nan;99324.66;4997058;28;20029;-73
2023/03/17 04:47:54;;;;;;;11.53;1.60;;;;;;;12.86;nan;99340.25;4997165;28;20022;-73
2023/03/17 04:50:20;;;;;;;14.88;1.50;;;;;;;12.75;nan;99351.13;5002343;28;20373;-73
2023/03/17 04:52:45;;;;;;;11.67;1.47;;;;;;;12.87;nan;99350.78;4997155;28;20561;-73
2023/03/17 04:55:10;;;;;;;12.40;1.37;;;;;;;12.90;nan;99352.47;4996763;28;20026;-73
2023/03/17 04:57:36;;;;;;;11.30;2.27;;;;;;;12.90;nan;99363.91;5005861;28;20022;-73
2023/03/17 05:00:04;;;;;;;9.10;1.65;;;;;;;12.87;nan;99348.13;5001241;28;20494;-72
2023/03/17 05:02:29;;;;;;;15.00;1.60;;;;;;;12.80;nan;99354.50;4998843;28;20577;-73
2023/03/17 05:04:55;;;;;;;13.50;1.30;;;;;;;12.84;nan;99352.66;5006609;28;20438;-73
2023/03/17 05:07:22;;;;;;;9.67;1.43;;;;;;;12.83;nan;99364.13;5000693;28;20027;-73
2023/03/17 05:09:47;;;;;;;17.02;2.03;;;;;;;12.80;nan;99362.44;5000542;28;20061;-72
2023/03/17 05:12:13;;;;;;;12.87;1.53;;;;;;;12.75;nan;99346.69;5000694;28;20030;-72
2023/03/17 05:14:39;;;;;;;18.80;1.15;;;;;;;12.84;nan;99348.22;5003034;28;20029;-73
2023/03/17 05:17:04;;;;;;;12.93;1.27;;;;;;;12.78;nan;99345.75;5009058;28;20031;-72
2023/03/17 05:19:30;;;;;;;11.87;1.20;;;;;;;12.80;nan;99336.00;5000864;28;20042;-73
2023/03/17 05:21:55;;;;;;;11.63;1.53;;;;;;;12.72;nan;99332.72;5000287;28;20029;-74
2023/03/17 05:24:20;;;;;;;12.77;1.60;;;;;;;12.77;nan;99325.53;4998858;28;20041;-73
2023/03/17 05:26:46;;;;;;;16.55;1.73;;;;;;;12.75;nan;99328.19;5000222;28;20034;-72
2023/03/17 05:29:12;;;;;;;12.90;1.70;;;;;;;12.76;nan;99329.94;5000273;28;20074;-72
2023/03/17 05:31:37;;;;;;;15.32;1.42;;;;;;;12.82;nan;99333.34;4999857;28;20034;-72
2023/03/17 05:34:04;;;;;;;12.37;1.07;;;;;;;12.75;nan;99338.78;5000295;28;20108;-72
2023/03/17 05:36:30;;;;;;;13.18;1.70;;;;;;;12.84;nan;99327.09;4999832;28;20029;-72
2023/03/17 05:38:56;;;;;;;15.10;1.90;;;;;;;12.84;nan;99348.22;5000064;28;20041;-72
2023/03/17 05:41:22;;;;;;;10.60;1.80;;;;;;;12.78;nan;99343.13;5001844;28;20030;-73
2023/03/17 05:43:47;;;;;;;16.52;1.90;;;;;;;12.85;nan;99338.53;4999996;28;20030;-72
2023/03/17 05:46:13;;;;;;;15.87;2.00;;;;;;;12.82;nan;99328.91;5000059;28;20040;-72
2023/03/17 05:48:39;;;;;;;9.60;1.30;;;;;;;12.88;nan;99338.44;4999588;28;20037;-72
2023/03/17 05:51:05;;;;;;;12.65;1.35;;;;;;;12.78;nan;99335.19;5005729;28;20023;-73
2023/03/17 05:53:30;;;;;;;15.90;1.70;;;;;;;12.84;nan;99337.66;4999775;28;20410;-72
2023/03/17 05:55:56;;;;;;;16.00;1.83;;;;;;;12.89;nan;99345.47;4999808;28;20050;-72
2023/03/17 05:58:22;;;;;;;12.40;1.67;;;;;;;12.93;nan;99352.38;5000130;28;20219;-73
2023/03/17 06:00:47;;;;;;;10.57;1.60;;;;;;;12.86;nan;99341.13;4980305;28;20109;-73
2023/03/17 06:03:13;;;;;;;12.30;1.47;;;;;;;12.85;nan;99352.59;4984337;28;20046;-73
2023/03/17 06:05:38;;;;;;;13.83;1.90;;;;;;;12.86;nan;99351.69;5006687;28;20022;-73
2023/03/17 06:08:04;;;;;;;19.65;1.58;;;;;;;12.86;nan;99354.31;4998694;28;20028;-72
2023/03/17 06:10:30;;;;;;;11.13;1.40;;;;;;;12.85;nan;99360.53;4997702;28;20038;-73
2023/03/17 06:12:57;;;;;;;14.05;1.55;;;;;;;12.82;nan;99336.84;4999357;28;20030;-72
2023/03/17 06:15:23;;;;;;;10.98;1.23;;;;;;;12.84;nan;99347.38;5008083;28;20061;-72
2023/03/17 06:17:49;;;;;;;17.77;1.58;;;;;;;12.89;nan;99345.47;5001234;28;20034;-72
2023/03/17 06:20:14;;;;;;;15.03;1.97;;;;;;;12.88;nan;99338.44;5000416;28;20076;-73
2023/03/17 06:22:40;;;;;;;10.03;1.17;;;;;;;12.94;nan;99329.47;4998795;28;20402;-72
2023/03/17 06:25:05;;;;;;;10.48;1.20;;;;;;;12.91;nan;99341.88;4999361;28;20080;-73
2023/03/17 06:27:31;;;;;;;14.30;1.77;;;;;;;12.97;nan;99350.53;4999177;28;20524;-73
2023/03/17 06:29:59;;;;;;;13.20;1.48;;;;;;;12.97;nan;99353.16;4997975;28;20058;-73
2023/03/17 06:32:24;;;;;;;11.70;1.80;;;;;;;12.99;nan;99346.06;4997439;28;20164;-72
2023/03/17 06:34:50;;;;;;;13.02;1.55;;;;;;;12.95;nan;99347.91;4999144;28;20054;-73
2023/03/17 06:37:16;;;;;;;12.90;1.23;;;;;;;12.94;nan;99348.81;4998591;28;20069;-73
2023/03/17 06:39:42;;;;;;;9.37;1.20;;;;;;;12.95;nan;99357.63;4999005;28;20026;-75
2023/03/17 06:42:08;;;;;;;12.20;1.48;;;;;;;12.93;nan;99360.31;5000559;28;20097;-72
2023/03/17 06:44:33;;;;;;;10.10;1.87;;;;;;;12.95;nan;99360.28;4990185;28;20096;-72
2023/03/17 06:46:59;;;;;;;9.85;1.23;;;;;;;12.92;nan;99372.66;4993726;28;20031;-73
2023/03/17 06:49:25;;;;;;;13.43;1.57;;;;;;;12.88;nan;99360.44;4987957;28;20022;-73
2023/03/17 06:51:50;;;;;;;16.38;1.30;;;;;;;12.92;nan;99348.88;4997251;28;20076;-72
2023/03/17 06:54:17;;;;;;;12.17;1.70;;;;;;;12.89;nan;99361.31;4997826;28;20026;-74
2023/03/17 06:56:43;;;;;;;14.30;1.77;;;;;;;12.94;nan;99355.91;4982449;28;20058;-74
2023/03/17 06:59:10;;;;;;;10.35;1.90;;;;;;;12.94;nan;99345.34;5003801;28;20453;-74
2023/03/17 07:01:37;;;;;;;13.50;2.07;;;;;;;12.92;nan;99377.97;4982198;28;20058;-71
2023/03/17 07:04:02;;;;;;;11.38;1.95;;;;;;;12.92;nan;99371.78;4993874;28;20029;-71
2023/03/17 07:06:28;;;;;;;13.55;1.73;;;;;;;12.92;nan;99371.78;5013299;28;20037;-71
2023/03/17 07:08:53;;;;;;;12.93;1.90;;;;;;;13.00;nan;99348.66;4985619;28;20030;-72
2023/03/17 07:11:19;;;;;;;9.83;1.47;;;;;;;13.03;nan;99347.69;4993962;28;20467;-72
2023/03/17 07:13:45;;;;;;;16.47;1.53;;;;;;;13.04;nan;99354.72;4990353;28;20038;-72
2023/03/17 07:16:12;;;;;;;10.23;1.40;;;;;;;12.98;nan;99361.03;4985613;28;20037;-73
2023/03/17 07:18:38;;;;;;;11.43;1.40;;;;;;;13.03;nan;99369.72;4991005;28;20037;-74
2023/03/17 07:21:04;;;;;;;11.05;1.17;;;;;;;13.02;nan;99382.97;4987983;28;20069;-72
2023/03/17 07:23:29;;;;;;;11.20;1.23;;;;;;;13.00;nan;99383.00;4988779;28;20041;-72
2023/03/17 07:25:56;;;;;;;11.63;1.57;;;;;;;13.08;nan;99382.78;4988964;28;20064;-70
2023/03/17 07:28:22;;;;;;;11.70;1.35;;;;;;;13.16;nan;99388.75;4992230;28;20033;-69
2023/03/17 07:30:48;;;;;;;12.80;1.77;;;;;;;13.08;nan;99390.72;4985553;28;20023;-70
2023/03/17 07:33:16;;;;;;;16.67;1.60;;;;;;;13.11;nan;99379.19;4988726;28;20029;-69
2023/03/17 07:35:42;;;;;;;12.77;1.03;;;;;;;13.08;nan;99388.06;4991987;28;20026;-70
2023/03/17 07:38:08;;;;;;;15.05;1.45;;;;;;;13.10;nan;99380.97;4993077;28;20022;-69
2023/03/17 07:40:35;;;;;;;9.70;1.10;;;;;;;13.13;nan;99402.03;4990482;28;20034;-69
2023/03/17 07:43:01;;;;;;;12.25;1.23;;;;;;;13.14;nan;99398.50;4990783;28;20029;-69
2023/03/17 07:45:27;;;;;;;12.30;1.73;;;;;;;13.14;nan;99409.06;4989432;28;20026;-69
2023/03/17 07:47:52;;;;;;;10.40;1.07;;;;;;;13.12;nan;99397.63;4996226;28;20022;-69
2023/03/17 07:50:19;;;;;;;10.75;1.13;;;;;;;13.08;nan;99398.66;4996609;28;20630;-66
2023/03/17 07:52:44;;;;;;;9.43;1.38;;;;;;;13.09;nan;99410.09;4992390;28;20030;-70
2023/03/17 07:55:11;;;;;;;11.27;1.80;;;;;;;13.15;nan;99416.09;4995109;28;20026;-73
2023/03/17 07:57:37;;;;;;;13.82;1.55;;;;;;;13.23;nan;99404.41;4994906;28;20030;-72
2023/03/17 08:00:07;;;;;;;12.13;2.03;;;;;;;13.24;nan;99433.44;4990132;28;20529;-71
2023/03/17 08:02:33;;;;;;;15.38;1.60;;;;;;;13.28;nan;99439.50;4992421;28;20507;-71
2023/03/17 08:04:59;;;;;;;13.73;1.20;;;;;;;13.27;nan;99445.72;5000546;28;20057;-71
2023/03/17 08:07:24;;;;;;;11.93;1.73;;;;;;;13.29;nan;99443.88;4996923;28;20081;-71
2023/03/17 08:09:50;;;;;;;12.73;1.20;;;;;;;13.34;nan;99441.97;4989645;28;20487;-72
2023/03/17 08:12:15;;;;;;;12.23;1.30;;;;;;;13.29;nan;99454.47;4997040;28;20026;-71
2023/03/17 08:14:40;;;;;;;14.33;1.20;;;;;;;13.33;nan;99456.09;4995200;28;20550;-71
2023/03/17 08:17:06;;;;;;;16.97;1.17;;;;;;;13.41;nan;99454.13;4990200;28;20109;-72
2023/03/17 08:19:31;;;;;;;10.10;1.10;;;;;;;13.47;nan;99467.19;4989938;28;20088;-72
2023/03/17 08:21:57;;;;;;;14.30;1.70;;;;;;;13.43;nan;99454.97;4993864;28;20030;-72
2023/03/17 08:24:22;;;;;;;10.00;1.10;;;;;;;13.49;nan;99462.72;4995714;28;20113;-72
2023/03/17 08:26:48;;;;;;;13.83;1.53;;;;;;;13.45;nan;99466.38;4996467;28;20026;-72
2023/03/17 08:29:14;;;;;;;10.82;1.20;;;;;;;13.55;nan;99472.28;4995927;28;20057;-72
2023/03/17 08:31:40;;;;;;;9.05;1.08;;;;;;;13.58;nan;99481.88;4996974;28;20029;-72
2023/03/17 08:34:06;;;;;;;9.17;1.37;;;;;;;13.72;nan;99478.81;4999785;28;20027;-72
2023/03/17 08:36:32;;;;;;;9.98;1.58;;;;;;;13.71;nan;99504.44;5000318;28;20563;-71
2023/03/17 08:38:58;;;;;;;8.90;1.52;;;;;;;13.85;nan;99495.19;5000987;28;20437;-71
2023/03/17 08:41:26;;;;;;;13.43;1.20;;;;;;;13.90;nan;99491.50;5002699;28;20045;-71
2023/03/17 08:43:53;;;;;;;17.00;1.88;;;;;;;13.94;nan;99500.22;5000780;28;20026;-71
2023/03/17 08:46:27;;;;;;;11.98;1.77;;;;;;;14.00;nan;99501.84;5000244;28;20030;-71
2023/03/17 08:48:55;;;;;;;11.37;1.60;;;;;;;13.98;nan;99507.16;4987262;28;20027;-71
2023/03/17 08:51:23;;;;;;;11.52;1.10;;;;;;;14.05;nan;99498.09;5012997;28;20022;-72
2023/03/17 08:53:50;;;;;;;9.82;1.02;;;;;;;14.05;nan;99492.81;4999293;28;20045;-71
2023/03/17 08:56:15;;;;;;;14.02;1.15;;;;;;;14.09;nan;99476.84;4998757;28;20044;-72
2023/03/17 08:58:42;;;;;;;13.23;1.45;;;;;;;14.12;nan;99476.75;5002589;28;20054;-71
2023/03/17 09:01:09;;;;;;;13.67;1.50;;;;;;;14.16;nan;99475.75;5000324;28;20034;-72
2023/03/17 09:03:35;;;;;;;15.07;2.17;;;;;;;14.22;nan;99478.19;5000207;28;20025;-72
2023/03/17 09:06:04;;;;;;;11.55;1.20;;;;;;;14.17;nan;99488.91;5000229;28;20050;-70
2023/03/17 09:08:30;;;;;;;14.55;1.20;;;;;;;14.12;nan;99504.09;4999495;28;20423;-71
2023/03/17 09:10:56;;;;;;;13.37;1.27;;;;;;;14.23;nan;99482.56;5000094;28;20053;-72
2023/03/17 09:13:21;;;;;;;16.90;1.63;;;;;;;14.24;nan;99486.94;5000572;28;20033;-71
2023/03/17 09:15:47;;;;;;;14.23;1.83;;;;;;;14.16;nan;99489.84;4999010;28;20030;-72
2023/03/17 09:18:13;;;;;;;11.07;1.23;;;;;;;14.20;nan;99502.06;5005391;28;20029;-72
2023/03/17 09:20:39;;;;;;;15.32;1.83;;;;;;;14.20;nan;99499.41;5002584;28;20450;-71
2023/03/17 09:23:07;;;;;;;9.60;1.27;;;;;;;14.20;nan;99501.22;5001414;28;20033;-71
2023/03/17 09:25:37;;;;;;;7.85;1.35;;;;;;;14.19;nan;99499.47;4998650;28;20024;-71
2023/03/17 09:28:03;;;;;;;14.05;1.70;;;;;;;14.07;nan;99514.81;4998542;28;20026;-71
2023/03/17 09:30:29;;;;;;;10.70;1.20;;;;;;;14.15;nan;99504.00;5000048;28;20484;-73
2023/03/17 09:32:55;;;;;;;13.82;1.30;;;;;;;14.17;nan;99496.88;5000150;28;20101;-73
2023/03/17 09:35:21;;;;;;;9.50;1.33;;;;;;;14.19;nan;99491.53;4998117;28;20058;-73
2023/03/17 09:37:47;;;;;;;15.07;1.33;;;;;;;14.18;nan;99503.03;4999785;28;20053;-71
2023/03/17 09:40:17;;;;;;;13.82;1.17;;;;;;;14.13;nan;99504.97;5000054;28;20097;-72
2023/03/17 09:43:20;;;;;;;13.75;1.20;;;;;;;14.10;nan;99500.63;5001394;28;20031;-73
2023/03/17 09:45:46;;;;;;;11.98;1.30;;;;;;;14.09;nan;99503.31;4980779;28;20058;-72
2023/03/17 09:48:17;;;;;;;12.63;1.57;;;;;;;14.14;nan;99494.31;4980343;28;20037;-71
2023/03/17 09:50:52;;;;;;;14.50;1.48;;;;;;;14.20;nan;99502.06;5000953;28;20069;-71
2023/03/17 09:53:21;;;;;;;16.30;1.80;;;;;;;14.20;nan;99514.44;4999765;28;20018;-72
2023/03/17 09:55:51;;;;;;;9.85;1.10;;;;;;;14.31;nan;99508.81;4998541;28;20081;-71
2023/03/17 09:58:23;;;;;;;11.70;1.40;;;;;;;14.35;nan;99492.78;5008899;28;20510;-71
2023/03/17 10:00:49;;;;;;;11.15;1.33;;;;;;;14.59;nan;99477.00;4998499;28;20116;-71
2023/03/17 10:03:15;;;;;;;11.40;1.10;;;;;;;14.72;nan;99490.75;4994721;28;20134;-74
2023/03/17 10:05:40;;;;;;;13.27;1.50;;;;;;;14.90;nan;99483.94;5008261;28;20033;-71
2023/03/17 10:08:25;;;;;;;16.60;1.60;;;;;;;14.97;nan;99484.59;5001192;28;20038;-73
2023/03/17 10:11:12;;;;;;;13.13;1.77;;;;;;;15.20;nan;99469.66;4993270;28;20105;-71
2023/03/17 10:14:05;;;;;;;12.00;1.48;;;;;;;15.23;nan;99473.97;5000177;28;20561;-70
2023/03/17 10:16:40;;;;;;;8.95;1.33;;;;;;;15.32;nan;99471.84;5000888;28;20030;-71
2023/03/17 10:19:20;;;;;;;14.77;1.48;;;;;;;15.49;nan;99468.56;5004822;28;20034;-71
2023/03/17 10:21:52;;;;;;;10.63;1.80;;;;;;;15.75;nan;99482.63;5005008;28;20030;-71
2023/03/17 10:24:18;;;;;;;9.73;1.38;;;;;;;16.23;nan;99479.94;5001480;28;20117;-71
2023/03/17 10:26:50;;;;;;;12.23;1.35;;;;;;;16.58;nan;99476.78;5001441;28;20034;-71
2023/03/17 10:29:24;;;;;;;14.90;1.73;;;;;;;16.62;nan;99475.72;5000979;28;20038;-73
2023/03/17 10:31:52;;;;;;;9.35;1.25;;;;;;;16.63;nan;99473.00;5000552;28;20034;-71
2023/03/17 10:34:29;;;;;;;17.60;1.50;;;;;;;16.55;nan;99472.47;4999754;28;20042;-71
2023/03/17 10:37:00;;;;;;;11.93;1.75;;;;;;;16.49;nan;99486.00;4997372;28;20026;-72
2023/03/17 10:39:26;;;;;;;11.88;1.20;;;;;;;16.69;nan;99482.53;4997990;28;20509;-74
2023/03/17 10:42:06;;;;;;;11.95;1.90;;;;;;;16.86;nan;99500.41;5006258;28;20057;-71
2023/03/17 10:44:43;;;;;;;10.52;1.40;;;;;;;16.71;nan;99490.41;4987050;28;20128;-72
2023/03/17 10:47:36;;;;;;;9.37;1.10;;;;;;;16.70;nan;99492.22;4998628;28;20081;-71
2023/03/17 10:50:30;;;;;;;10.75;1.40;;;;;;;16.53;nan;99498.25;5008260;28;20492;-73
2023/03/17 10:53:02;;;;;;;10.10;1.38;;;;;;;16.38;nan;99496.22;4998063;28;20030;-72
2023/03/17 10:55:32;;;;;;;9.38;1.73;;;;;;;16.39;nan;99479.34;4998294;28;20081;-71
2023/03/17 10:58:12;;;;;;;12.60;1.52;;;;;;;16.21;nan;99480.03;5010777;28;20038;-72
2023/03/17 11:00:38;;;;;;;12.77;1.50;;;;;;;15.95;nan;99491.66;4990533;28;20088;-73
2023/03/17 11:03:09;;;;;;;11.63;1.45;;;;;;;15.71;nan;99496.97;4999391;28;20058;-73
2023/03/17 11:05:37;;;;;;;8.88;1.90;;;;;;;15.76;nan;99486.16;5008634;28;20041;-72
2023/03/17 11:08:37;;;;;;;13.30;1.73;;;;;;;15.70;nan;99475.81;4998371;28;20073;-72
2023/03/17 11:11:25;;;;;;;10.80;1.30;;;;;;;15.45;nan;99492.63;5004445;28;20042;-74
2023/03/17 11:14:15;;;;;;;12.93;1.70;;;;;;;15.28;nan;99464.94;4992688;28;20037;-73
2023/03/17 11:16:53;;;;;;;9.82;1.65;;;;;;;15.21;nan;99468.75;5015465;28;20021;-74
2023/03/17 11:19:40;;;;;;;11.30;1.40;;;;;;;15.22;nan;99465.16;5015050;28;20084;-72
2023/03/17 11:22:18;;;;;;;12.53;1.30;;;;;;;15.06;nan;99475.44;5003605;28;20027;-71
2023/03/17 11:24:51;;;;;;;10.93;1.42;;;;;;;15.05;nan;99479.00;5000026;28;20054;-72
2023/03/17 11:27:30;;;;;;;12.55;1.27;;;;;;;15.06;nan;99478.06;5000930;28;20026;-72
2023/03/17 11:30:15;;;;;;;15.00;1.38;;;;;;;15.01;nan;99466.78;5006827;28;20022;-71
2023/03/17 11:32:42;;;;;;;11.98;1.45;;;;;;;15.11;nan;99472.63;5000899;28;20038;-73
2023/03/17 11:35:40;;;;;;;10.13;1.30;;;;;;;15.00;nan;99484.47;5004504;28;20486;-74
2023/03/17 11:38:20;;;;;;;14.32;1.80;;;;;;;15.08;nan;99505.44;4990661;28;20018;-72
2023/03/17 11:41:16;;;;;;;9.75;1.42;;;;;;;15.15;nan;99500.75;4995878;28;20022;-72
2023/03/17 11:43:54;;;;;;;9.95;1.38;;;;;;;15.20;nan;99504.97;4990378;28;20436;-73
2023/03/17 11:46:22;;;;;;;11.15;1.20;;;;;;;15.29;nan;99498.50;4989619;28;20033;-72
2023/03/17 11:49:14;;;;;;;12.70;1.60;;;;;;;15.44;nan;99485.59;4994127;28;20010;-73